Washington, NC

7:29 PM EST en Enero 31, 2015 (GMT -0500)
Swan Point | Change Station
CLOSE
Current Station
Estación meteorológica personal
Location: Washington, NC
Altura: 30 ft
Estaciones meteorológicas cercanas

Alt 30 ft 35.48 °N, 76.97 °W | Updated 2 seconds ago

Clear
Despejado
34.0 ° F
Sensación térmica 34 ° F
N
0.0
Viento Variable Viento desde NNO
Gusts 0.0 mph

Hoy
Alta -- | Baja -- ° F
--% Posibilidad de precipitaciones
Ayer
Alta -- | Baja -- ° F
Precip. -- pul
7:08 AM 5:34 PM
Gibosa creciente, 92% visible
Presión 30.34 pul
Visibilidad 10.0 Millas
Nubes Despejado
Vientos helados 34 ° F
Punto de rocío 20 ° F
Humedad 56%
Precipitaciones 0.00 pul
Espesor de la nieve No disponible.
UV 0 de una escala de 12
Polen 3.20 de una escala de 12
Calidad del aire No disponible.
Flu Activity No disponible.
METAR KOCW 010015Z AUTO 00000KT 10SM CLR 01/M09 A3034 RMK AO2 T00051090

More Conditions Fewer Conditions

Presión 30.34 pul
Visibilidad 10.0 Millas
Nubes Despejado
Vientos helados 34 ° F
Punto de rocío 20 ° F
Humedad 56%
Precipitaciones 0.00 pul
Espesor de la nieve No disponible.
UV 0 de una escala de 12
Polen 3.20 de una escala de 12
Calidad del aire No disponible.
Flu Activity No disponible.
METAR KOCW 010015Z AUTO 00000KT 10SM CLR 01/M09 A3034 RMK AO2 T00051090

More Conditions Fewer Conditions

10-Day Weather Forecast

Almanac

Astronomía

Jan. 31, 2015 Salida Puesta
Hora real
Crepúsculo civil
Crepúsculo náutico
Crepúsculo astronómico
Luna
Horas de luz
Horas de luz
Tomorrow will be .
, % of the Moon is Illuminated

Extremos de hoy

Máximos del estado Bajos del estado

Community

WunderPhotos

Upload Photos

1,792,255 ¡fotos cargadas!

WunderBlogs® & News

Nearby

Calidad del aire

  Calidad del aire Índice AQ Contaminante
Not available.

Grosos de nieve

Estación Profundido Altura

Actividad de terremotos

Ciudad Distance Mag. Tiempo y dato
Magnitud mínima muestra es 2,5.

Temperaturas de aguas costeras

Lugar Temperatura

Estaciones meteorológicas cercanas